sensor_id;sensor_type;location;lat;lon;timestamp;P1;durP1;ratioP1;P2;durP2;ratioP2
48751;SDS011;34544;48.836;9.174;2024-03-06T00:00:56;8.52;;;5.50;;
48751;SDS011;34544;48.836;9.174;2024-03-06T00:03:22;13.32;;;8.65;;
48751;SDS011;34544;48.836;9.174;2024-03-06T00:05:48;17.10;;;7.18;;
48751;SDS011;34544;48.836;9.174;2024-03-06T00:08:14;13.57;;;7.90;;
48751;SDS011;34544;48.836;9.174;2024-03-06T00:10:40;11.50;;;6.47;;
48751;SDS011;34544;48.836;9.174;2024-03-06T00:13:07;9.90;;;6.10;;
48751;SDS011;34544;48.836;9.174;2024-03-06T00:15:33;11.45;;;5.78;;
48751;SDS011;34544;48.836;9.174;2024-03-06T00:17:59;9.40;;;6.07;;
48751;SDS011;34544;48.836;9.174;2024-03-06T00:20:26;8.05;;;5.05;;
48751;SDS011;34544;48.836;9.174;2024-03-06T00:22:53;9.55;;;4.93;;
48751;SDS011;34544;48.836;9.174;2024-03-06T00:25:19;7.68;;;4.95;;
48751;SDS011;34544;48.836;9.174;2024-03-06T00:27:45;9.52;;;4.93;;
48751;SDS011;34544;48.836;9.174;2024-03-06T00:30:10;51.80;;;23.85;;
48751;SDS011;34544;48.836;9.174;2024-03-06T00:32:36;46.38;;;23.02;;
48751;SDS011;34544;48.836;9.174;2024-03-06T00:35:02;94.05;;;40.28;;
48751;SDS011;34544;48.836;9.174;2024-03-06T00:37:29;101.50;;;46.20;;
48751;SDS011;34544;48.836;9.174;2024-03-06T00:39:55;93.70;;;45.58;;
48751;SDS011;34544;48.836;9.174;2024-03-06T00:42:20;28.42;;;17.73;;
48751;SDS011;34544;48.836;9.174;2024-03-06T00:44:46;37.92;;;20.55;;
48751;SDS011;34544;48.836;9.174;2024-03-06T00:47:12;32.75;;;15.43;;
48751;SDS011;34544;48.836;9.174;2024-03-06T00:49:38;21.23;;;10.90;;
48751;SDS011;34544;48.836;9.174;2024-03-06T00:52:04;13.18;;;9.00;;
48751;SDS011;34544;48.836;9.174;2024-03-06T00:54:30;9.57;;;5.82;;
48751;SDS011;34544;48.836;9.174;2024-03-06T00:56:56;8.02;;;6.38;;
48751;SDS011;34544;48.836;9.174;2024-03-06T00:59:22;11.85;;;6.55;;
48751;SDS011;34544;48.836;9.174;2024-03-06T01:01:48;10.93;;;6.53;;
48751;SDS011;34544;48.836;9.174;2024-03-06T01:04:15;6.50;;;4.53;;
48751;SDS011;34544;48.836;9.174;2024-03-06T01:06:41;8.00;;;4.32;;
48751;SDS011;34544;48.836;9.174;2024-03-06T01:09:07;5.82;;;3.78;;
48751;SDS011;34544;48.836;9.174;2024-03-06T01:11:33;10.65;;;6.03;;
48751;SDS011;34544;48.836;9.174;2024-03-06T01:13:59;6.22;;;3.72;;
48751;SDS011;34544;48.836;9.174;2024-03-06T01:16:25;9.27;;;4.63;;
48751;SDS011;34544;48.836;9.174;2024-03-06T01:18:50;8.63;;;4.40;;
48751;SDS011;34544;48.836;9.174;2024-03-06T01:21:16;6.50;;;3.40;;
48751;SDS011;34544;48.836;9.174;2024-03-06T01:23:42;9.50;;;4.30;;
48751;SDS011;34544;48.836;9.174;2024-03-06T01:26:08;6.32;;;3.78;;
48751;SDS011;34544;48.836;9.174;2024-03-06T01:28:34;7.57;;;4.43;;
48751;SDS011;34544;48.836;9.174;2024-03-06T01:31:00;4.63;;;3.45;;
48751;SDS011;34544;48.836;9.174;2024-03-06T01:33:26;8.88;;;3.15;;
48751;SDS011;34544;48.836;9.174;2024-03-06T01:35:52;8.27;;;5.18;;
48751;SDS011;34544;48.836;9.174;2024-03-06T01:38:18;6.72;;;3.95;;
48751;SDS011;34544;48.836;9.174;2024-03-06T01:40:44;5.50;;;3.17;;
48751;SDS011;34544;48.836;9.174;2024-03-06T01:43:23;8.18;;;3.72;;
48751;SDS011;34544;48.836;9.174;2024-03-06T01:45:50;6.38;;;3.70;;
48751;SDS011;34544;48.836;9.174;2024-03-06T01:48:19;5.88;;;4.15;;
48751;SDS011;34544;48.836;9.174;2024-03-06T01:50:48;3.75;;;3.13;;
48751;SDS011;34544;48.836;9.174;2024-03-06T01:53:14;5.80;;;3.75;;
48751;SDS011;34544;48.836;9.174;2024-03-06T01:55:42;5.78;;;2.88;;
48751;SDS011;34544;48.836;9.174;2024-03-06T01:58:08;4.60;;;2.90;;
48751;SDS011;34544;48.836;9.174;2024-03-06T02:00:34;5.75;;;2.75;;
48751;SDS011;34544;48.836;9.174;2024-03-06T02:03:01;4.57;;;2.80;;
48751;SDS011;34544;48.836;9.174;2024-03-06T02:05:28;4.90;;;3.22;;
48751;SDS011;34544;48.836;9.174;2024-03-06T02:07:56;6.28;;;3.55;;
48751;SDS011;34544;48.836;9.174;2024-03-06T02:10:24;4.82;;;3.08;;
48751;SDS011;34544;48.836;9.174;2024-03-06T02:12:51;4.13;;;3.33;;
48751;SDS011;34544;48.836;9.174;2024-03-06T02:15:18;5.25;;;3.63;;
48751;SDS011;34544;48.836;9.174;2024-03-06T02:17:44;4.63;;;3.85;;
48751;SDS011;34544;48.836;9.174;2024-03-06T02:20:11;5.68;;;3.95;;
48751;SDS011;34544;48.836;9.174;2024-03-06T02:22:39;5.53;;;3.22;;
48751;SDS011;34544;48.836;9.174;2024-03-06T02:25:06;6.65;;;3.40;;
48751;SDS011;34544;48.836;9.174;2024-03-06T02:27:32;5.10;;;3.65;;
48751;SDS011;34544;48.836;9.174;2024-03-06T02:29:58;9.98;;;4.32;;
48751;SDS011;34544;48.836;9.174;2024-03-06T02:32:24;4.65;;;3.25;;
48751;SDS011;34544;48.836;9.174;2024-03-06T02:34:50;6.00;;;3.90;;
48751;SDS011;34544;48.836;9.174;2024-03-06T02:37:16;8.50;;;3.90;;
48751;SDS011;34544;48.836;9.174;2024-03-06T02:39:43;6.50;;;3.65;;
48751;SDS011;34544;48.836;9.174;2024-03-06T02:42:09;7.53;;;3.60;;
48751;SDS011;34544;48.836;9.174;2024-03-06T02:44:34;5.35;;;3.78;;
48751;SDS011;34544;48.836;9.174;2024-03-06T02:47:00;4.95;;;3.92;;
48751;SDS011;34544;48.836;9.174;2024-03-06T02:49:26;5.03;;;4.40;;
48751;SDS011;34544;48.836;9.174;2024-03-06T02:51:52;4.07;;;3.67;;
48751;SDS011;34544;48.836;9.174;2024-03-06T02:54:17;6.13;;;4.63;;
48751;SDS011;34544;48.836;9.174;2024-03-06T02:56:44;5.90;;;4.07;;
48751;SDS011;34544;48.836;9.174;2024-03-06T02:59:09;5.25;;;3.95;;
48751;SDS011;34544;48.836;9.174;2024-03-06T03:01:35;6.82;;;4.30;;
48751;SDS011;34544;48.836;9.174;2024-03-06T03:04:01;6.75;;;4.10;;
48751;SDS011;34544;48.836;9.174;2024-03-06T03:06:27;7.70;;;4.40;;
48751;SDS011;34544;48.836;9.174;2024-03-06T03:08:54;4.68;;;3.42;;
48751;SDS011;34544;48.836;9.174;2024-03-06T03:11:21;8.52;;;4.13;;
48751;SDS011;34544;48.836;9.174;2024-03-06T03:13:47;5.43;;;3.75;;
48751;SDS011;34544;48.836;9.174;2024-03-06T03:16:17;7.88;;;4.03;;
48751;SDS011;34544;48.836;9.174;2024-03-06T03:18:44;5.30;;;3.75;;
48751;SDS011;34544;48.836;9.174;2024-03-06T03:21:10;7.32;;;3.53;;
48751;SDS011;34544;48.836;9.174;2024-03-06T03:23:37;6.72;;;4.07;;
48751;SDS011;34544;48.836;9.174;2024-03-06T03:26:03;6.93;;;4.07;;
48751;SDS011;34544;48.836;9.174;2024-03-06T03:28:32;7.03;;;4.25;;
48751;SDS011;34544;48.836;9.174;2024-03-06T03:30:58;6.72;;;4.20;;
48751;SDS011;34544;48.836;9.174;2024-03-06T03:33:24;5.63;;;3.80;;
48751;SDS011;34544;48.836;9.174;2024-03-06T03:35:50;4.15;;;3.10;;
48751;SDS011;34544;48.836;9.174;2024-03-06T03:38:16;3.75;;;3.15;;
48751;SDS011;34544;48.836;9.174;2024-03-06T03:40:42;6.13;;;3.30;;
48751;SDS011;34544;48.836;9.174;2024-03-06T03:43:08;8.63;;;3.17;;
48751;SDS011;34544;48.836;9.174;2024-03-06T03:45:35;5.85;;;3.03;;
48751;SDS011;34544;48.836;9.174;2024-03-06T03:48:01;4.47;;;3.40;;
48751;SDS011;34544;48.836;9.174;2024-03-06T03:50:28;6.90;;;3.05;;
48751;SDS011;34544;48.836;9.174;2024-03-06T03:52:54;4.03;;;3.17;;
48751;SDS011;34544;48.836;9.174;2024-03-06T03:55:26;5.30;;;3.45;;
48751;SDS011;34544;48.836;9.174;2024-03-06T03:57:52;4.20;;;3.30;;
48751;SDS011;34544;48.836;9.174;2024-03-06T04:00:18;5.10;;;3.40;;
48751;SDS011;34544;48.836;9.174;2024-03-06T04:02:44;4.03;;;2.97;;
48751;SDS011;34544;48.836;9.174;2024-03-06T04:05:10;4.45;;;3.00;;
48751;SDS011;34544;48.836;9.174;2024-03-06T04:07:36;6.50;;;3.28;;
48751;SDS011;34544;48.836;9.174;2024-03-06T04:10:03;4.97;;;3.08;;
48751;SDS011;34544;48.836;9.174;2024-03-06T04:12:29;5.95;;;3.42;;
48751;SDS011;34544;48.836;9.174;2024-03-06T04:14:55;4.22;;;3.45;;
48751;SDS011;34544;48.836;9.174;2024-03-06T04:17:21;4.50;;;2.78;;
48751;SDS011;34544;48.836;9.174;2024-03-06T04:19:47;4.97;;;3.30;;
48751;SDS011;34544;48.836;9.174;2024-03-06T04:22:13;8.38;;;3.20;;
48751;SDS011;34544;48.836;9.174;2024-03-06T04:24:42;3.95;;;2.80;;
48751;SDS011;34544;48.836;9.174;2024-03-06T04:27:08;6.78;;;3.53;;
48751;SDS011;34544;48.836;9.174;2024-03-06T04:29:34;3.67;;;3.28;;
48751;SDS011;34544;48.836;9.174;2024-03-06T04:31:59;5.72;;;3.22;;
48751;SDS011;34544;48.836;9.174;2024-03-06T04:34:25;7.32;;;3.80;;
48751;SDS011;34544;48.836;9.174;2024-03-06T04:36:51;5.28;;;3.67;;
48751;SDS011;34544;48.836;9.174;2024-03-06T04:39:17;7.82;;;4.03;;
48751;SDS011;34544;48.836;9.174;2024-03-06T04:41:43;5.32;;;3.45;;
48751;SDS011;34544;48.836;9.174;2024-03-06T04:44:08;8.45;;;4.45;;
48751;SDS011;34544;48.836;9.174;2024-03-06T04:46:34;7.65;;;3.58;;
48751;SDS011;34544;48.836;9.174;2024-03-06T04:49:00;6.55;;;3.40;;
48751;SDS011;34544;48.836;9.174;2024-03-06T04:51:25;5.13;;;3.60;;
48751;SDS011;34544;48.836;9.174;2024-03-06T04:53:51;5.43;;;3.60;;
48751;SDS011;34544;48.836;9.174;2024-03-06T04:56:17;9.48;;;3.85;;
48751;SDS011;34544;48.836;9.174;2024-03-06T04:58:44;10.25;;;4.13;;
48751;SDS011;34544;48.836;9.174;2024-03-06T05:01:11;7.07;;;3.60;;
48751;SDS011;34544;48.836;9.174;2024-03-06T05:03:37;8.18;;;4.25;;
48751;SDS011;34544;48.836;9.174;2024-03-06T05:06:04;7.10;;;4.22;;
48751;SDS011;34544;48.836;9.174;2024-03-06T05:08:30;4.65;;;3.80;;
48751;SDS011;34544;48.836;9.174;2024-03-06T05:10:57;6.25;;;4.03;;
48751;SDS011;34544;48.836;9.174;2024-03-06T05:13:25;6.35;;;4.07;;
48751;SDS011;34544;48.836;9.174;2024-03-06T05:15:51;6.45;;;4.10;;
48751;SDS011;34544;48.836;9.174;2024-03-06T05:18:17;7.18;;;4.72;;
48751;SDS011;34544;48.836;9.174;2024-03-06T05:20:43;16.33;;;5.15;;
48751;SDS011;34544;48.836;9.174;2024-03-06T05:23:09;6.35;;;4.53;;
48751;SDS011;34544;48.836;9.174;2024-03-06T05:25:34;11.85;;;4.28;;
48751;SDS011;34544;48.836;9.174;2024-03-06T05:28:00;7.45;;;4.25;;
48751;SDS011;34544;48.836;9.174;2024-03-06T05:30:26;8.77;;;4.47;;
48751;SDS011;34544;48.836;9.174;2024-03-06T05:32:51;6.65;;;4.57;;
48751;SDS011;34544;48.836;9.174;2024-03-06T05:35:18;10.48;;;4.85;;
48751;SDS011;34544;48.836;9.174;2024-03-06T05:37:43;5.47;;;4.18;;
48751;SDS011;34544;48.836;9.174;2024-03-06T05:40:10;8.05;;;4.75;;
48751;SDS011;34544;48.836;9.174;2024-03-06T05:42:36;14.68;;;4.85;;
48751;SDS011;34544;48.836;9.174;2024-03-06T05:45:02;14.38;;;7.18;;
48751;SDS011;34544;48.836;9.174;2024-03-06T05:47:38;6.15;;;4.88;;
48751;SDS011;34544;48.836;9.174;2024-03-06T05:50:07;10.88;;;5.30;;
48751;SDS011;34544;48.836;9.174;2024-03-06T05:52:36;6.03;;;4.33;;
48751;SDS011;34544;48.836;9.174;2024-03-06T05:55:02;13.00;;;5.88;;
48751;SDS011;34544;48.836;9.174;2024-03-06T05:57:31;8.27;;;4.65;;
48751;SDS011;34544;48.836;9.174;2024-03-06T05:59:57;8.02;;;4.65;;
48751;SDS011;34544;48.836;9.174;2024-03-06T06:02:23;8.00;;;4.88;;
48751;SDS011;34544;48.836;9.174;2024-03-06T06:04:48;7.97;;;5.35;;
48751;SDS011;34544;48.836;9.174;2024-03-06T06:07:14;10.65;;;4.65;;
48751;SDS011;34544;48.836;9.174;2024-03-06T06:09:41;8.10;;;5.10;;
48751;SDS011;34544;48.836;9.174;2024-03-06T06:12:06;6.20;;;4.55;;
48751;SDS011;34544;48.836;9.174;2024-03-06T06:14:32;6.28;;;3.95;;
48751;SDS011;34544;48.836;9.174;2024-03-06T06:16:58;9.85;;;5.35;;
48751;SDS011;34544;48.836;9.174;2024-03-06T06:19:23;8.65;;;4.63;;
48751;SDS011;34544;48.836;9.174;2024-03-06T06:21:53;11.90;;;5.70;;
48751;SDS011;34544;48.836;9.174;2024-03-06T06:24:19;11.10;;;5.13;;
48751;SDS011;34544;48.836;9.174;2024-03-06T06:26:45;8.75;;;4.93;;
48751;SDS011;34544;48.836;9.174;2024-03-06T06:29:11;13.07;;;4.80;;
48751;SDS011;34544;48.836;9.174;2024-03-06T06:31:36;9.85;;;4.78;;
48751;SDS011;34544;48.836;9.174;2024-03-06T06:34:02;6.85;;;4.80;;
48751;SDS011;34544;48.836;9.174;2024-03-06T06:36:28;7.70;;;4.75;;
48751;SDS011;34544;48.836;9.174;2024-03-06T06:38:54;12.63;;;4.45;;
48751;SDS011;34544;48.836;9.174;2024-03-06T06:41:20;9.63;;;5.05;;
48751;SDS011;34544;48.836;9.174;2024-03-06T06:43:46;8.55;;;4.32;;
48751;SDS011;34544;48.836;9.174;2024-03-06T06:46:12;7.75;;;4.55;;
48751;SDS011;34544;48.836;9.174;2024-03-06T06:48:38;9.45;;;4.63;;
48751;SDS011;34544;48.836;9.174;2024-03-06T06:51:04;5.45;;;4.20;;
48751;SDS011;34544;48.836;9.174;2024-03-06T06:53:30;7.93;;;4.15;;
48751;SDS011;34544;48.836;9.174;2024-03-06T06:55:56;9.77;;;6.07;;
48751;SDS011;34544;48.836;9.174;2024-03-06T06:58:23;12.40;;;5.07;;
48751;SDS011;34544;48.836;9.174;2024-03-06T07:00:48;6.95;;;4.22;;
48751;SDS011;34544;48.836;9.174;2024-03-06T07:03:14;6.72;;;4.35;;
48751;SDS011;34544;48.836;9.174;2024-03-06T07:05:40;11.93;;;4.43;;
48751;SDS011;34544;48.836;9.174;2024-03-06T07:08:08;10.15;;;4.65;;
48751;SDS011;34544;48.836;9.174;2024-03-06T07:10:34;6.30;;;3.80;;
48751;SDS011;34544;48.836;9.174;2024-03-06T07:13:02;9.63;;;4.15;;
48751;SDS011;34544;48.836;9.174;2024-03-06T07:15:28;11.60;;;5.13;;
48751;SDS011;34544;48.836;9.174;2024-03-06T07:17:54;10.20;;;4.78;;
48751;SDS011;34544;48.836;9.174;2024-03-06T07:20:19;7.22;;;4.70;;
48751;SDS011;34544;48.836;9.174;2024-03-06T07:22:45;7.32;;;4.95;;
48751;SDS011;34544;48.836;9.174;2024-03-06T07:25:12;10.88;;;4.97;;
48751;SDS011;34544;48.836;9.174;2024-03-06T07:27:38;7.28;;;4.68;;
48751;SDS011;34544;48.836;9.174;2024-03-06T07:30:04;8.30;;;4.60;;
48751;SDS011;34544;48.836;9.174;2024-03-06T07:32:30;8.88;;;4.50;;
48751;SDS011;34544;48.836;9.174;2024-03-06T07:34:57;10.73;;;4.40;;
48751;SDS011;34544;48.836;9.174;2024-03-06T07:37:23;6.78;;;4.65;;
48751;SDS011;34544;48.836;9.174;2024-03-06T07:39:49;7.93;;;4.28;;
48751;SDS011;34544;48.836;9.174;2024-03-06T07:42:15;7.90;;;3.72;;
48751;SDS011;34544;48.836;9.174;2024-03-06T07:44:43;7.22;;;4.35;;
48751;SDS011;34544;48.836;9.174;2024-03-06T07:47:08;7.22;;;4.00;;
48751;SDS011;34544;48.836;9.174;2024-03-06T07:49:34;5.63;;;4.80;;
48751;SDS011;34544;48.836;9.174;2024-03-06T07:52:00;7.60;;;3.97;;
48751;SDS011;34544;48.836;9.174;2024-03-06T07:54:26;6.25;;;4.38;;
48751;SDS011;34544;48.836;9.174;2024-03-06T07:56:52;11.98;;;5.13;;
48751;SDS011;34544;48.836;9.174;2024-03-06T07:59:18;7.20;;;4.05;;
48751;SDS011;34544;48.836;9.174;2024-03-06T08:01:44;7.05;;;4.18;;
48751;SDS011;34544;48.836;9.174;2024-03-06T08:04:10;7.63;;;3.70;;
48751;SDS011;34544;48.836;9.174;2024-03-06T08:06:36;7.50;;;3.90;;
48751;SDS011;34544;48.836;9.174;2024-03-06T08:09:02;7.82;;;3.75;;
48751;SDS011;34544;48.836;9.174;2024-03-06T08:11:29;4.80;;;4.00;;
48751;SDS011;34544;48.836;9.174;2024-03-06T08:13:58;5.05;;;3.72;;
48751;SDS011;34544;48.836;9.174;2024-03-06T08:16:24;9.85;;;4.07;;
48751;SDS011;34544;48.836;9.174;2024-03-06T08:18:50;8.85;;;5.15;;
48751;SDS011;34544;48.836;9.174;2024-03-06T08:21:16;9.25;;;3.88;;
48751;SDS011;34544;48.836;9.174;2024-03-06T08:23:42;5.10;;;4.18;;
48751;SDS011;34544;48.836;9.174;2024-03-06T08:26:10;9.90;;;4.28;;
48751;SDS011;34544;48.836;9.174;2024-03-06T08:28:35;7.75;;;4.70;;
48751;SDS011;34544;48.836;9.174;2024-03-06T08:31:01;5.28;;;4.22;;
48751;SDS011;34544;48.836;9.174;2024-03-06T08:33:27;4.70;;;3.85;;
48751;SDS011;34544;48.836;9.174;2024-03-06T08:35:53;5.53;;;4.32;;
48751;SDS011;34544;48.836;9.174;2024-03-06T08:38:19;5.22;;;4.13;;
48751;SDS011;34544;48.836;9.174;2024-03-06T08:40:45;4.68;;;3.88;;
48751;SDS011;34544;48.836;9.174;2024-03-06T08:43:13;6.35;;;4.72;;
48751;SDS011;34544;48.836;9.174;2024-03-06T08:45:40;5.95;;;4.55;;
48751;SDS011;34544;48.836;9.174;2024-03-06T08:48:07;8.07;;;5.00;;
48751;SDS011;34544;48.836;9.174;2024-03-06T08:50:33;6.72;;;4.10;;
48751;SDS011;34544;48.836;9.174;2024-03-06T08:52:59;6.32;;;5.20;;
48751;SDS011;34544;48.836;9.174;2024-03-06T08:55:27;8.45;;;4.65;;
48751;SDS011;34544;48.836;9.174;2024-03-06T08:57:53;9.07;;;5.65;;
48751;SDS011;34544;48.836;9.174;2024-03-06T09:00:19;8.88;;;5.53;;
48751;SDS011;34544;48.836;9.174;2024-03-06T09:02:45;7.68;;;5.07;;
48751;SDS011;34544;48.836;9.174;2024-03-06T09:05:11;7.80;;;5.13;;
48751;SDS011;34544;48.836;9.174;2024-03-06T09:07:38;7.43;;;4.85;;
48751;SDS011;34544;48.836;9.174;2024-03-06T09:10:06;7.55;;;4.53;;
48751;SDS011;34544;48.836;9.174;2024-03-06T09:12:35;7.68;;;5.25;;
48751;SDS011;34544;48.836;9.174;2024-03-06T09:15:02;7.38;;;5.40;;
48751;SDS011;34544;48.836;9.174;2024-03-06T09:17:28;7.25;;;5.07;;
48751;SDS011;34544;48.836;9.174;2024-03-06T09:19:54;5.85;;;4.40;;
48751;SDS011;34544;48.836;9.174;2024-03-06T09:22:20;8.55;;;4.53;;
48751;SDS011;34544;48.836;9.174;2024-03-06T09:24:46;5.55;;;4.38;;
48751;SDS011;34544;48.836;9.174;2024-03-06T09:27:13;6.43;;;4.28;;
48751;SDS011;34544;48.836;9.174;2024-03-06T09:29:39;4.55;;;3.97;;
48751;SDS011;34544;48.836;9.174;2024-03-06T09:32:06;7.38;;;4.18;;
48751;SDS011;34544;48.836;9.174;2024-03-06T09:34:31;6.47;;;4.93;;
48751;SDS011;34544;48.836;9.174;2024-03-06T09:36:57;8.05;;;5.88;;
48751;SDS011;34544;48.836;9.174;2024-03-06T09:39:23;7.10;;;5.18;;
48751;SDS011;34544;48.836;9.174;2024-03-06T09:41:54;9.48;;;4.93;;
48751;SDS011;34544;48.836;9.174;2024-03-06T09:44:22;9.32;;;6.25;;
48751;SDS011;34544;48.836;9.174;2024-03-06T09:46:48;8.68;;;5.78;;
48751;SDS011;34544;48.836;9.174;2024-03-06T09:49:15;7.22;;;6.18;;
48751;SDS011;34544;48.836;9.174;2024-03-06T09:51:45;8.27;;;6.70;;
48751;SDS011;34544;48.836;9.174;2024-03-06T09:54:12;9.50;;;6.97;;
48751;SDS011;34544;48.836;9.174;2024-03-06T09:56:42;11.23;;;7.32;;
48751;SDS011;34544;48.836;9.174;2024-03-06T09:59:17;10.80;;;8.27;;
48751;SDS011;34544;48.836;9.174;2024-03-06T10:06:55;10.73;;;8.05;;
48751;SDS011;34544;48.836;9.174;2024-03-06T10:09:22;9.15;;;7.10;;
48751;SDS011;34544;48.836;9.174;2024-03-06T10:11:49;10.63;;;8.70;;
48751;SDS011;34544;48.836;9.174;2024-03-06T10:14:15;14.10;;;8.73;;
48751;SDS011;34544;48.836;9.174;2024-03-06T10:19:23;12.77;;;9.02;;
48751;SDS011;34544;48.836;9.174;2024-03-06T10:21:53;10.23;;;9.23;;
48751;SDS011;34544;48.836;9.174;2024-03-06T10:24:20;13.00;;;8.73;;
48751;SDS011;34544;48.836;9.174;2024-03-06T10:26:48;13.60;;;9.40;;
48751;SDS011;34544;48.836;9.174;2024-03-06T10:29:20;13.50;;;9.85;;
48751;SDS011;34544;48.836;9.174;2024-03-06T10:31:53;11.65;;;9.57;;
48751;SDS011;34544;48.836;9.174;2024-03-06T10:34:21;14.85;;;10.45;;
48751;SDS011;34544;48.836;9.174;2024-03-06T10:36:54;16.02;;;11.05;;
48751;SDS011;34544;48.836;9.174;2024-03-06T10:39:21;15.13;;;11.70;;
48751;SDS011;34544;48.836;9.174;2024-03-06T10:41:51;13.90;;;11.52;;
48751;SDS011;34544;48.836;9.174;2024-03-06T10:44:20;14.32;;;11.40;;
48751;SDS011;34544;48.836;9.174;2024-03-06T10:47:03;13.02;;;11.50;;
48751;SDS011;34544;48.836;9.174;2024-03-06T10:49:31;19.30;;;14.27;;
48751;SDS011;34544;48.836;9.174;2024-03-06T10:51:58;17.33;;;13.80;;
48751;SDS011;34544;48.836;9.174;2024-03-06T10:54:28;20.40;;;14.40;;
48751;SDS011;34544;48.836;9.174;2024-03-06T10:57:07;15.75;;;13.90;;
48751;SDS011;34544;48.836;9.174;2024-03-06T10:59:35;20.27;;;14.77;;
48751;SDS011;34544;48.836;9.174;2024-03-06T11:02:01;20.20;;;15.88;;
48751;SDS011;34544;48.836;9.174;2024-03-06T11:04:27;19.25;;;14.98;;
48751;SDS011;34544;48.836;9.174;2024-03-06T11:06:55;19.25;;;16.38;;
48751;SDS011;34544;48.836;9.174;2024-03-06T11:09:22;20.90;;;15.77;;
48751;SDS011;34544;48.836;9.174;2024-03-06T11:11:51;22.33;;;14.75;;
48751;SDS011;34544;48.836;9.174;2024-03-06T11:14:18;16.77;;;14.70;;
48751;SDS011;34544;48.836;9.174;2024-03-06T11:17:03;24.15;;;16.52;;
48751;SDS011;34544;48.836;9.174;2024-03-06T11:19:29;25.95;;;16.95;;
48751;SDS011;34544;48.836;9.174;2024-03-06T11:21:56;19.38;;;16.73;;
48751;SDS011;34544;48.836;9.174;2024-03-06T11:24:31;20.95;;;17.15;;
48751;SDS011;34544;48.836;9.174;2024-03-06T11:27:01;22.15;;;17.10;;
48751;SDS011;34544;48.836;9.174;2024-03-06T11:30:02;23.52;;;19.13;;
48751;SDS011;34544;48.836;9.174;2024-03-06T11:35:28;24.13;;;17.92;;
48751;SDS011;34544;48.836;9.174;2024-03-06T11:37:54;29.90;;;20.05;;
48751;SDS011;34544;48.836;9.174;2024-03-06T11:40:23;24.42;;;18.73;;
48751;SDS011;34544;48.836;9.174;2024-03-06T11:42:49;24.00;;;18.85;;
48751;SDS011;34544;48.836;9.174;2024-03-06T11:45:16;24.38;;;19.88;;
48751;SDS011;34544;48.836;9.174;2024-03-06T11:50:42;25.30;;;19.70;;
48751;SDS011;34544;48.836;9.174;2024-03-06T11:53:08;24.95;;;19.40;;
48751;SDS011;34544;48.836;9.174;2024-03-06T11:55:34;33.28;;;26.35;;
48751;SDS011;34544;48.836;9.174;2024-03-06T11:58:00;27.08;;;19.55;;
48751;SDS011;34544;48.836;9.174;2024-03-06T12:00:27;27.55;;;21.80;;
48751;SDS011;34544;48.836;9.174;2024-03-06T12:02:55;27.58;;;21.50;;
48751;SDS011;34544;48.836;9.174;2024-03-06T12:05:22;23.73;;;19.38;;
48751;SDS011;34544;48.836;9.174;2024-03-06T12:07:51;29.05;;;20.80;;
48751;SDS011;34544;48.836;9.174;2024-03-06T12:10:17;27.52;;;20.55;;
48751;SDS011;34544;48.836;9.174;2024-03-06T12:12:43;25.90;;;18.10;;
48751;SDS011;34544;48.836;9.174;2024-03-06T12:15:13;23.90;;;19.40;;
48751;SDS011;34544;48.836;9.174;2024-03-06T12:17:47;24.42;;;18.58;;
48751;SDS011;34544;48.836;9.174;2024-03-06T12:20:15;26.10;;;20.45;;
48751;SDS011;34544;48.836;9.174;2024-03-06T12:22:45;25.58;;;18.23;;
48751;SDS011;34544;48.836;9.174;2024-03-06T12:25:17;25.05;;;18.98;;
48751;SDS011;34544;48.836;9.174;2024-03-06T12:27:47;26.50;;;17.83;;
48751;SDS011;34544;48.836;9.174;2024-03-06T12:30:13;22.08;;;17.23;;
48751;SDS011;34544;48.836;9.174;2024-03-06T12:35:30;23.50;;;19.13;;
48751;SDS011;34544;48.836;9.174;2024-03-06T12:37:57;26.15;;;18.58;;
48751;SDS011;34544;48.836;9.174;2024-03-06T12:40:23;23.98;;;18.65;;
48751;SDS011;34544;48.836;9.174;2024-03-06T12:42:49;23.88;;;18.10;;
48751;SDS011;34544;48.836;9.174;2024-03-06T12:45:17;23.45;;;18.17;;
48751;SDS011;34544;48.836;9.174;2024-03-06T12:47:44;24.27;;;19.42;;
48751;SDS011;34544;48.836;9.174;2024-03-06T12:50:13;23.33;;;19.88;;
48751;SDS011;34544;48.836;9.174;2024-03-06T12:52:38;28.67;;;19.45;;
48751;SDS011;34544;48.836;9.174;2024-03-06T12:55:04;26.77;;;20.33;;
48751;SDS011;34544;48.836;9.174;2024-03-06T12:57:34;29.50;;;20.70;;
48751;SDS011;34544;48.836;9.174;2024-03-06T13:00:00;21.90;;;19.40;;
48751;SDS011;34544;48.836;9.174;2024-03-06T13:02:25;25.85;;;19.55;;
48751;SDS011;34544;48.836;9.174;2024-03-06T13:04:51;24.98;;;18.10;;
48751;SDS011;34544;48.836;9.174;2024-03-06T13:07:17;22.33;;;17.70;;
48751;SDS011;34544;48.836;9.174;2024-03-06T13:09:44;25.98;;;18.23;;
48751;SDS011;34544;48.836;9.174;2024-03-06T13:12:10;22.02;;;19.00;;
48751;SDS011;34544;48.836;9.174;2024-03-06T13:14:36;19.48;;;17.30;;
48751;SDS011;34544;48.836;9.174;2024-03-06T13:17:02;19.83;;;17.33;;
48751;SDS011;34544;48.836;9.174;2024-03-06T13:19:28;26.27;;;19.40;;
48751;SDS011;34544;48.836;9.174;2024-03-06T13:21:54;21.50;;;17.00;;
48751;SDS011;34544;48.836;9.174;2024-03-06T13:24:20;21.77;;;17.85;;
48751;SDS011;34544;48.836;9.174;2024-03-06T13:26:46;18.52;;;15.80;;
48751;SDS011;34544;48.836;9.174;2024-03-06T13:29:12;21.77;;;16.90;;
48751;SDS011;34544;48.836;9.174;2024-03-06T13:31:38;20.35;;;16.13;;
48751;SDS011;34544;48.836;9.174;2024-03-06T13:34:04;19.67;;;16.08;;
48751;SDS011;34544;48.836;9.174;2024-03-06T13:36:30;22.15;;;17.65;;
48751;SDS011;34544;48.836;9.174;2024-03-06T13:38:56;19.20;;;16.45;;
48751;SDS011;34544;48.836;9.174;2024-03-06T13:41:22;20.13;;;16.13;;
48751;SDS011;34544;48.836;9.174;2024-03-06T13:43:48;22.48;;;15.80;;
48751;SDS011;34544;48.836;9.174;2024-03-06T13:46:14;22.50;;;15.02;;
48751;SDS011;34544;48.836;9.174;2024-03-06T13:48:40;18.00;;;14.93;;
48751;SDS011;34544;48.836;9.174;2024-03-06T13:51:06;18.70;;;15.13;;
48751;SDS011;34544;48.836;9.174;2024-03-06T13:53:32;21.20;;;14.93;;
48751;SDS011;34544;48.836;9.174;2024-03-06T13:55:58;21.00;;;15.90;;
48751;SDS011;34544;48.836;9.174;2024-03-06T13:58:24;20.25;;;16.65;;
48751;SDS011;34544;48.836;9.174;2024-03-06T14:00:51;20.40;;;16.55;;
48751;SDS011;34544;48.836;9.174;2024-03-06T14:03:17;21.42;;;16.63;;
48751;SDS011;34544;48.836;9.174;2024-03-06T14:05:42;23.35;;;16.50;;
48751;SDS011;34544;48.836;9.174;2024-03-06T14:08:08;24.40;;;16.58;;
48751;SDS011;34544;48.836;9.174;2024-03-06T14:10:38;22.50;;;17.80;;
48751;SDS011;34544;48.836;9.174;2024-03-06T14:13:04;24.10;;;17.33;;
48751;SDS011;34544;48.836;9.174;2024-03-06T14:15:32;21.70;;;17.45;;
48751;SDS011;34544;48.836;9.174;2024-03-06T14:17:58;19.13;;;17.13;;
48751;SDS011;34544;48.836;9.174;2024-03-06T14:20:24;21.08;;;17.70;;
48751;SDS011;34544;48.836;9.174;2024-03-06T14:22:50;21.73;;;18.02;;
48751;SDS011;34544;48.836;9.174;2024-03-06T14:25:15;24.15;;;18.67;;
48751;SDS011;34544;48.836;9.174;2024-03-06T14:27:42;23.83;;;18.60;;
48751;SDS011;34544;48.836;9.174;2024-03-06T14:30:08;21.73;;;17.77;;
48751;SDS011;34544;48.836;9.174;2024-03-06T14:32:38;24.25;;;19.40;;
48751;SDS011;34544;48.836;9.174;2024-03-06T14:35:04;27.42;;;19.00;;
48751;SDS011;34544;48.836;9.174;2024-03-06T14:37:30;22.27;;;19.40;;
48751;SDS011;34544;48.836;9.174;2024-03-06T14:39:56;20.85;;;17.50;;
48751;SDS011;34544;48.836;9.174;2024-03-06T14:42:22;23.65;;;18.83;;
48751;SDS011;34544;48.836;9.174;2024-03-06T14:44:48;22.58;;;18.38;;
48751;SDS011;34544;48.836;9.174;2024-03-06T14:47:14;23.02;;;19.17;;
48751;SDS011;34544;48.836;9.174;2024-03-06T14:49:43;27.13;;;19.25;;
48751;SDS011;34544;48.836;9.174;2024-03-06T14:52:10;22.17;;;18.70;;